Time;durP1;ratioP1;P1;durP2;ratioP2;P2;SDS_P1;SDS_P2;PMS_P1;PMS_P2;Temp;Humidity;BMP_temperature;BMP_pressure;BME280_temperature;BME280_humidity;BME280_pressure;Samples;Min_cycle;Max_cycle;Signal;HPM_P1;HPM_P2
2022/07/08 04:57:47;;;;;;;7.33;3.17;;;17.80;64.20;;;;;;7356647;19;20202;-76
2022/07/08 05:00:18;;;;;;;4.10;2.70;;;17.70;64.20;;;;;;7343414;19;20396;-80
2022/07/08 05:02:47;;;;;;;5.20;3.03;;;17.70;63.60;;;;;;7365328;19;20412;-80
2022/07/08 05:05:17;;;;;;;28.77;17.33;;;17.40;65.70;;;;;;7370980;19;20415;-80
2022/07/08 05:07:47;;;;;;;5.23;2.77;;;17.40;66.90;;;;;;7362265;19;20765;-81
2022/07/08 05:10:18;;;;;;;14.70;7.93;;;17.60;74.70;;;;;;7372048;19;21352;-80
2022/07/08 05:12:50;;;;;;;11.47;5.50;;;17.80;66.90;;;;;;7371144;19;20421;-80
2022/07/08 05:15:20;;;;;;;10.63;5.67;;;17.90;66.00;;;;;;7359782;19;20442;-79
2022/07/08 05:17:52;;;;;;;6.07;2.63;;;18.00;64.50;;;;;;7377759;19;20483;-79
2022/07/08 05:20:23;;;;;;;6.17;3.30;;;17.90;64.10;;;;;;7366130;19;20964;-78
2022/07/08 05:22:53;;;;;;;6.67;4.57;;;17.80;64.30;;;;;;7371949;19;20423;-79
2022/07/08 05:25:22;;;;;;;10.43;4.77;;;17.80;63.60;;;;;;7371862;19;20368;-79
2022/07/08 05:27:57;;;;;;;18.70;5.80;;;17.90;64.70;;;;;;7369629;19;20419;-79
2022/07/08 05:30:27;;;;;;;5.80;2.93;;;18.00;63.90;;;;;;7371473;19;20424;-78
2022/07/08 05:32:56;;;;;;;5.17;2.27;;;17.90;63.80;;;;;;7374753;19;20384;-79
2022/07/08 05:35:26;;;;;;;7.27;2.40;;;17.90;63.60;;;;;;7372818;19;20927;-82
2022/07/08 05:37:55;;;;;;;9.10;2.20;;;18.00;62.70;;;;;;7370520;19;20777;-81
2022/07/08 05:40:25;;;;;;;3.87;1.97;;;17.80;63.40;;;;;;7372644;19;20428;-87
2022/07/08 05:42:57;;;;;;;7.20;2.37;;;17.60;62.50;;;;;;7362014;19;20424;-85
2022/07/08 05:45:27;;;;;;;8.67;2.30;;;17.60;63.20;;;;;;7376620;19;20419;-79
2022/07/08 05:47:56;;;;;;;5.00;2.60;;;17.70;63.30;;;;;;7371780;19;20419;-86
2022/07/08 05:50:26;;;;;;;6.07;2.20;;;17.80;62.80;;;;;;7359251;19;20457;-81
2022/07/08 05:53:00;;;;;;;7.97;2.00;;;17.80;62.20;;;;;;7366130;19;20406;-82
2022/07/08 05:55:30;;;;;;;6.40;2.10;;;17.70;62.80;;;;;;7364837;19;20401;-85
2022/07/08 05:58:02;;;;;;;5.80;1.87;;;17.50;63.90;;;;;;7355390;19;20456;-83
2022/07/08 06:00:32;;;;;;;5.10;1.93;;;17.70;63.60;;;;;;7372536;19;20416;-84
2022/07/08 06:03:03;;;;;;;8.13;2.40;;;18.00;64.20;;;;;;7368963;19;20946;-79
2022/07/08 06:05:35;;;;;;;4.50;2.40;;;18.10;62.20;;;;;;7360054;19;20715;-78
2022/07/08 06:08:05;;;;;;;4.20;1.80;;;18.30;61.30;;;;;;7371240;19;20400;-77
2022/07/08 06:10:34;;;;;;;2.90;1.77;;;18.40;61.70;;;;;;7362978;19;20851;-81
2022/07/08 06:13:06;;;;;;;5.37;2.57;;;18.50;60.80;;;;;;7364025;19;20933;-83
2022/07/08 06:15:36;;;;;;;6.00;2.63;;;18.70;60.80;;;;;;7376610;19;20437;-80
2022/07/08 06:18:10;;;;;;;7.97;3.00;;;18.80;59.80;;;;;;7377513;19;20776;-81
2022/07/08 06:20:42;;;;;;;4.70;1.80;;;18.80;59.30;;;;;;7373795;19;20401;-81
2022/07/08 06:23:12;;;;;;;6.17;2.43;;;18.80;59.10;;;;;;7370074;19;20408;-81
2022/07/08 06:25:42;;;;;;;5.20;2.40;;;18.80;58.80;;;;;;7387114;19;20773;-81
2022/07/08 06:28:14;;;;;;;9.30;2.70;;;18.70;59.80;;;;;;7385589;19;20522;-81
2022/07/08 06:30:43;;;;;;;5.10;1.90;;;18.80;59.50;;;;;;7389374;19;20475;-80
2022/07/08 06:33:13;;;;;;;5.87;1.93;;;19.20;59.60;;;;;;7385633;19;20419;-81
2022/07/08 06:35:43;;;;;;;5.30;1.70;;;19.70;56.80;;;;;;7388299;19;20455;-81
2022/07/08 06:38:13;;;;;;;2.90;1.67;;;19.80;55.70;;;;;;7387460;19;20376;-80
2022/07/08 06:40:42;;;;;;;5.43;2.10;;;19.90;56.00;;;;;;7388382;19;20419;-80
2022/07/08 06:43:14;;;;;;;2.30;1.80;;;20.00;54.70;;;;;;7388721;19;20408;-81
2022/07/08 06:45:46;;;;;;;7.33;2.00;;;19.90;55.70;;;;;;7386842;19;20736;-81
2022/07/08 06:48:18;;;;;;;6.23;1.50;;;20.10;55.10;;;;;;7387661;19;20376;-81
2022/07/08 06:50:47;;;;;;;5.93;2.33;;;19.90;55.10;;;;;;7392037;19;20407;-81
2022/07/08 06:53:17;;;;;;;5.43;1.80;;;20.10;54.70;;;;;;7388601;19;20722;-81
2022/07/08 06:55:51;;;;;;;6.07;1.97;;;20.30;53.90;;;;;;7387845;19;20936;-81
2022/07/08 06:58:23;;;;;;;2.40;1.23;;;20.30;53.30;;;;;;7381579;19;20448;-81
2022/07/08 07:00:53;;;;;;;6.30;1.50;;;20.40;53.70;;;;;;7383810;19;20984;-81
2022/07/08 07:03:22;;;;;;;6.33;1.80;;;20.40;53.70;;;;;;7387985;19;20406;-81
2022/07/08 07:05:54;;;;;;;3.20;1.37;;;20.40;53.20;;;;;;7390672;19;20831;-81
2022/07/08 07:08:26;;;;;;;4.13;1.57;;;20.70;52.30;;;;;;7387991;19;20404;-81
2022/07/08 07:10:56;;;;;;;4.30;1.50;;;20.50;53.80;;;;;;7383536;19;20403;-81
2022/07/08 07:13:28;;;;;;;5.67;1.50;;;20.40;52.00;;;;;;7384886;19;20453;-81
2022/07/08 07:15:57;;;;;;;1.70;1.27;;;20.40;52.10;;;;;;7381842;19;20412;-81
2022/07/08 07:18:27;;;;;;;5.47;1.50;;;20.40;51.50;;;;;;7386125;19;20946;-81
2022/07/08 07:20:59;;;;;;;3.17;1.50;;;20.30;51.00;;;;;;7391825;19;20422;-81
2022/07/08 07:23:29;;;;;;;9.33;1.67;;;20.00;51.10;;;;;;7389406;19;21110;-81
2022/07/08 07:26:01;;;;;;;5.40;1.50;;;19.80;51.30;;;;;;7383712;19;20400;-81
2022/07/08 07:28:37;;;;;;;3.37;1.53;;;19.80;51.80;;;;;;7388244;19;20400;-81
2022/07/08 07:31:07;;;;;;;2.90;1.30;;;20.00;51.40;;;;;;7386850;19;20720;-83
2022/07/08 07:33:36;;;;;;;3.03;1.40;;;20.30;50.60;;;;;;7385941;19;20908;-81
2022/07/08 07:36:07;;;;;;;4.50;1.37;;;20.70;51.60;;;;;;7383169;19;20424;-82
2022/07/08 07:38:36;;;;;;;1.97;1.30;;;20.80;50.00;;;;;;7388000;19;20399;-82
2022/07/08 07:41:06;;;;;;;5.60;1.70;;;21.00;49.60;;;;;;7390217;19;20965;-82
2022/07/08 07:43:38;;;;;;;6.20;1.53;;;21.10;49.30;;;;;;7386402;19;20384;-82
2022/07/08 07:46:10;;;;;;;7.90;1.60;;;21.00;50.80;;;;;;7388017;19;20403;-82
2022/07/08 07:48:42;;;;;;;3.00;1.57;;;21.20;49.50;;;;;;7388205;19;20401;-82
2022/07/08 07:51:12;;;;;;;4.57;1.80;;;21.10;50.30;;;;;;7390214;19;20731;-81
2022/07/08 07:53:41;;;;;;;3.43;1.40;;;21.10;49.20;;;;;;7384299;19;20510;-81
2022/07/08 07:56:11;;;;;;;2.07;1.37;;;21.40;49.70;;;;;;7383078;19;20783;-81
2022/07/08 07:58:43;;;;;;;7.33;2.20;;;21.30;48.90;;;;;;7382895;19;20518;-81
2022/07/08 08:01:13;;;;;;;3.47;1.40;;;21.40;48.80;;;;;;7388338;19;20397;-82
2022/07/08 08:03:45;;;;;;;1.93;1.13;;;21.40;49.40;;;;;;7388283;19;20443;-81
2022/07/08 08:06:14;;;;;;;3.33;1.50;;;21.40;48.50;;;;;;7387770;19;21020;-81
2022/07/08 08:08:44;;;;;;;3.13;1.23;;;21.40;49.00;;;;;;7389395;19;20938;-82
2022/07/08 08:11:16;;;;;;;1.57;1.20;;;21.50;49.50;;;;;;7388127;19;20391;-81
2022/07/08 08:13:48;;;;;;;5.50;1.47;;;20.90;49.10;;;;;;7385722;19;20392;-82
2022/07/08 08:16:18;;;;;;;4.97;1.50;;;21.00;49.60;;;;;;7366369;19;20415;-81
2022/07/08 08:18:49;;;;;;;1.90;1.10;;;21.20;49.20;;;;;;7381894;19;20394;-81
2022/07/08 08:21:19;;;;;;;2.60;1.10;;;21.30;48.40;;;;;;7382659;19;20968;-82
2022/07/08 08:23:49;;;;;;;3.00;1.33;;;21.30;48.00;;;;;;7383685;19;20464;-83
2022/07/08 08:26:19;;;;;;;4.77;1.40;;;21.20;49.00;;;;;;7379913;19;20980;-83
2022/07/08 08:28:51;;;;;;;5.30;1.60;;;21.20;48.50;;;;;;7378889;19;20404;-84
2022/07/08 08:31:20;;;;;;;5.87;1.60;;;21.10;48.60;;;;;;7386737;19;20408;-84
2022/07/08 08:33:52;;;;;;;1.57;0.93;;;21.10;48.20;;;;;;7383364;19;20404;-83
2022/07/08 08:36:23;;;;;;;3.73;1.73;;;21.20;47.80;;;;;;7380955;19;20907;-84
2022/07/08 08:38:52;;;;;;;4.57;1.50;;;21.00;48.00;;;;;;7374032;19;21013;-83
2022/07/08 08:41:25;;;;;;;3.20;1.53;;;21.00;49.90;;;;;;7379998;19;20403;-82
2022/07/08 08:43:59;;;;;;;15.50;3.73;;;21.10;47.60;;;;;;7369675;19;20952;-81
2022/07/08 08:46:29;;;;;;;5.70;1.83;;;21.00;51.90;;;;;;7376395;19;20409;-83
2022/07/08 08:49:01;;;;;;;10.57;2.53;;;21.40;48.70;;;;;;7373223;19;20416;-83
2022/07/08 08:51:34;;;;;;;5.30;1.23;;;22.00;48.40;;;;;;7376422;19;20408;-83
2022/07/08 08:54:05;;;;;;;9.00;3.03;;;22.50;46.60;;;;;;7370936;19;20372;-83
2022/07/08 08:56:39;;;;;;;1.73;1.40;;;22.90;48.10;;;;;;7376732;19;20878;-83
2022/07/08 08:59:12;;;;;;;4.47;3.37;;;23.20;44.30;;;;;;7366644;19;20408;-83
2022/07/08 09:01:43;;;;;;;2.80;1.27;;;23.10;44.80;;;;;;7376606;19;20413;-82
2022/07/08 09:04:12;;;;;;;5.07;1.90;;;22.80;44.50;;;;;;7378369;19;21279;-82
2022/07/08 09:06:44;;;;;;;3.97;1.60;;;22.70;46.10;;;;;;7378565;19;20380;-82
2022/07/08 09:09:14;;;;;;;3.90;1.07;;;22.90;45.30;;;;;;7367940;19;20412;-83
2022/07/08 09:11:48;;;;;;;5.17;2.03;;;23.00;44.80;;;;;;7382332;19;20371;-82
2022/07/08 09:14:24;;;;;;;1.37;1.27;;;23.30;45.90;;;;;;7373593;19;20428;-82
2022/07/08 09:17:10;;;;;;;3.60;1.60;;;23.10;43.70;;;;;;7375723;19;20412;-83
2022/07/08 09:19:40;;;;;;;2.10;1.43;;;23.00;46.40;;;;;;7372318;19;20408;-82
2022/07/08 09:22:10;;;;;;;2.30;1.00;;;23.00;45.80;;;;;;7377926;19;20400;-82
2022/07/08 09:24:41;;;;;;;3.77;1.40;;;23.60;45.40;;;;;;7379551;19;20412;-81
2022/07/08 09:27:12;;;;;;;2.70;1.17;;;24.00;43.50;;;;;;7375039;19;20404;-81
2022/07/08 09:30:00;;;;;;;1.97;1.00;;;24.20;43.40;;;;;;7386917;19;20419;-81
2022/07/08 09:32:29;;;;;;;1.77;1.10;;;24.40;42.30;;;;;;7368679;19;20415;-81
2022/07/08 09:35:01;;;;;;;4.07;1.50;;;24.50;42.60;;;;;;7379175;19;20424;-82
2022/07/08 09:37:35;;;;;;;3.37;1.10;;;24.90;43.00;;;;;;7384536;19;20388;-82
2022/07/08 09:40:04;;;;;;;2.80;1.03;;;25.20;41.50;;;;;;7383522;19;20435;-82
2022/07/08 09:42:42;;;;;;;4.57;1.20;;;25.30;41.00;;;;;;7383777;19;20404;-81
2022/07/08 09:45:19;;;;;;;6.47;1.47;;;25.70;41.40;;;;;;7386102;19;20412;-80
2022/07/08 09:47:49;;;;;;;21.27;3.80;;;26.40;39.70;;;;;;7383224;19;20387;-79
2022/07/08 09:50:34;;;;;;;5.27;1.20;;;26.90;39.00;;;;;;7384658;19;20400;-80
2022/07/08 09:53:16;;;;;;;10.53;2.60;;;27.60;37.80;;;;;;7378785;19;20364;-80
2022/07/08 09:55:51;;;;;;;5.17;1.70;;;28.30;37.70;;;;;;7378519;19;21007;-83
2022/07/08 09:58:23;;;;;;;2.23;1.00;;;28.70;36.60;;;;;;7384710;19;20431;-82
2022/07/08 10:01:00;;;;;;;3.07;1.10;;;29.10;35.70;;;;;;7390877;19;20412;-82
2022/07/08 10:03:31;;;;;;;4.47;0.90;;;29.60;34.10;;;;;;7393979;19;20400;-82
2022/07/08 10:06:03;;;;;;;2.57;1.37;;;29.90;34.00;;;;;;7392658;19;20380;-82
2022/07/08 10:08:35;;;;;;;2.13;1.00;;;30.40;33.20;;;;;;7398462;19;20424;-81
2022/07/08 10:11:10;;;;;;;5.27;1.37;;;30.80;32.00;;;;;;7396586;19;21333;-81
2022/07/08 10:13:43;;;;;;;5.77;1.50;;;31.00;31.50;;;;;;7397526;19;20435;-82
2022/07/08 10:16:15;;;;;;;5.30;1.53;;;31.60;31.70;;;;;;7392519;19;20400;-80
2022/07/08 10:18:52;;;;;;;3.73;1.30;;;32.30;31.00;;;;;;7395967;19;20414;-81
2022/07/08 10:21:29;;;;;;;3.57;1.40;;;32.10;30.40;;;;;;7396867;19;20420;-82
2022/07/08 10:24:01;;;;;;;4.13;1.63;;;31.60;31.10;;;;;;7394714;19;20784;-82
2022/07/08 10:26:34;;;;;;;2.77;1.70;;;31.60;31.40;;;;;;7392729;19;20416;-80
2022/07/08 10:29:06;;;;;;;2.83;1.07;;;32.80;30.40;;;;;;7397338;19;20415;-81
2022/07/08 10:31:47;;;;;;;2.60;1.20;;;33.10;29.00;;;;;;7391250;19;21573;-80
2022/07/08 10:34:21;;;;;;;4.03;1.77;;;33.10;29.30;;;;;;7392347;19;20960;-82
2022/07/08 10:36:54;;;;;;;4.47;1.40;;;32.40;29.60;;;;;;7380668;19;21005;-80
2022/07/08 10:39:28;;;;;;;3.63;1.30;;;32.70;29.80;;;;;;7395918;19;20411;-81
2022/07/08 10:41:59;;;;;;;3.50;1.27;;;32.80;29.60;;;;;;7391747;19;20391;-82
2022/07/08 10:44:50;;;;;;;2.17;1.30;;;32.60;29.40;;;;;;7395238;19;21459;-81
2022/07/08 10:47:28;;;;;;;2.90;1.30;;;33.00;30.00;;;;;;7389820;19;20371;-79
2022/07/08 10:50:07;;;;;;;3.80;1.40;;;34.00;29.00;;;;;;7397504;19;20976;-77
2022/07/08 10:52:43;;;;;;;4.57;3.17;;;34.80;27.80;;;;;;7380543;19;20408;-78
2022/07/08 10:55:19;;;;;;;3.30;2.13;;;35.30;27.30;;;;;;7389697;19;20965;-79
2022/07/08 10:57:58;;;;;;;3.77;1.57;;;35.70;27.10;;;;;;7381503;19;20858;-80
2022/07/08 11:00:35;;;;;;;4.60;1.60;;;36.20;26.70;;;;;;7392082;19;20430;-80
2022/07/08 11:03:11;;;;;;;4.33;1.97;;;35.30;26.70;;;;;;7395642;19;20375;-80
2022/07/08 11:05:42;;;;;;;4.30;1.53;;;34.60;27.80;;;;;;7394561;19;20387;-79
2022/07/08 11:08:26;;;;;;;5.83;2.63;;;35.00;27.50;;;;;;7387756;19;20914;-80
2022/07/08 11:10:58;;;;;;;3.70;1.50;;;33.70;28.10;;;;;;7384974;19;21525;-80
2022/07/08 11:13:28;;;;;;;3.63;1.87;;;34.60;27.40;;;;;;7386970;19;20991;-80
2022/07/08 11:16:02;;;;;;;9.87;3.13;;;36.00;26.60;;;;;;7386511;19;20373;-80
2022/07/08 11:18:39;;;;;;;2.33;1.50;;;36.60;25.80;;;;;;7388559;19;20384;-80
2022/07/08 11:21:09;;;;;;;2.10;1.00;;;36.80;25.30;;;;;;7384083;19;20383;-80
2022/07/08 11:23:49;;;;;;;3.10;0.93;;;37.10;25.80;;;;;;7384603;19;20935;-80
2022/07/08 11:26:20;;;;;;;2.40;1.30;;;35.80;26.10;;;;;;7386235;19;20439;-80
2022/07/08 11:28:50;;;;;;;2.10;1.27;;;36.80;26.10;;;;;;7385501;19;20777;-80
2022/07/08 11:31:27;;;;;;;2.10;0.87;;;37.20;25.20;;;;;;7387012;19;20380;-80
2022/07/08 11:34:04;;;;;;;2.90;1.10;;;37.80;24.90;;;;;;7385638;19;20965;-80
2022/07/08 11:36:38;;;;;;;3.00;1.10;;;38.60;24.30;;;;;;7389641;19;20412;-80
2022/07/08 11:39:08;;;;;;;3.80;1.23;;;37.50;24.10;;;;;;7382051;19;20859;-80
2022/07/08 11:41:42;;;;;;;1.97;0.87;;;37.30;24.80;;;;;;7382407;19;20483;-83
2022/07/08 11:44:12;;;;;;;3.90;0.97;;;37.80;24.20;;;;;;7385805;19;20375;-83
2022/07/08 11:46:47;;;;;;;1.63;0.90;;;38.30;24.30;;;;;;7384793;19;20384;-83
2022/07/08 11:49:23;;;;;;;3.00;1.27;;;38.90;24.20;;;;;;7381140;19;20929;-83
2022/07/08 11:51:56;;;;;;;2.10;1.00;;;38.80;24.20;;;;;;7380577;19;20412;-82
2022/07/08 11:54:27;;;;;;;2.53;0.90;;;38.10;23.90;;;;;;7384135;19;20420;-83
2022/07/08 11:56:57;;;;;;;2.37;1.17;;;38.10;24.30;;;;;;7380857;19;20458;-83
2022/07/08 11:59:29;;;;;;;2.40;0.80;;;38.20;24.30;;;;;;7386941;19;21034;-83
2022/07/08 12:01:59;;;;;;;2.43;1.10;;;38.30;24.40;;;;;;7387303;19;20899;-82
2022/07/08 12:04:32;;;;;;;2.00;1.27;;;38.30;24.30;;;;;;7387620;19;20410;-83
2022/07/08 12:07:03;;;;;;;2.30;1.13;;;37.90;24.00;;;;;;7383163;19;20939;-82
2022/07/08 12:09:33;;;;;;;2.30;0.90;;;38.10;23.90;;;;;;7386918;19;20497;-81
2022/07/08 12:12:08;;;;;;;2.20;0.97;;;38.00;24.10;;;;;;7388491;19;20451;-80
2022/07/08 12:14:38;;;;;;;1.87;0.80;;;38.00;24.40;;;;;;7389092;19;20395;-80
2022/07/08 12:17:08;;;;;;;1.30;0.90;;;37.90;23.60;;;;;;7386756;19;20957;-80
2022/07/08 12:19:40;;;;;;;3.77;0.90;;;37.90;24.00;;;;;;7384770;19;20451;-80
2022/07/08 12:22:11;;;;;;;2.00;0.83;;;37.80;23.70;;;;;;7383435;19;20373;-80
2022/07/08 12:24:42;;;;;;;2.10;1.00;;;38.40;24.00;;;;;;7383324;19;20376;-81
2022/07/08 12:27:18;;;;;;;3.43;1.27;;;38.70;23.90;;;;;;7385311;19;20379;-81
2022/07/08 12:29:48;;;;;;;5.27;2.20;;;38.90;23.90;;;;;;7386964;19;20419;-81
2022/07/08 12:32:25;;;;;;;2.57;1.30;;;38.10;24.40;;;;;;7382849;19;20496;-80
2022/07/08 12:34:57;;;;;;;1.90;0.90;;;39.10;23.60;;;;;;7385150;19;20941;-80
2022/07/08 12:37:29;;;;;;;2.50;1.20;;;39.30;23.20;;;;;;7387223;19;20472;-81
2022/07/08 12:40:14;;;;;;;4.13;1.10;;;39.50;23.50;;;;;;7385623;19;20400;-81
2022/07/08 12:43:03;;;;;;;2.57;1.13;;;39.90;23.50;;;;;;7375121;19;20504;-79
2022/07/08 12:45:33;;;;;;;3.20;1.10;;;40.10;22.90;;;;;;7372297;19;20364;-80
2022/07/08 12:48:03;;;;;;;2.63;0.83;;;39.60;23.20;;;;;;7379311;19;20428;-82
2022/07/08 12:50:36;;;;;;;7.57;1.70;;;39.20;23.20;;;;;;7369111;19;20407;-80
2022/07/08 12:53:06;;;;;;;2.33;1.00;;;39.40;23.40;;;;;;7378914;19;20412;-80
2022/07/08 12:55:36;;;;;;;1.90;1.07;;;39.20;23.30;;;;;;7386309;19;20409;-80
2022/07/08 12:58:08;;;;;;;3.10;1.50;;;39.10;23.30;;;;;;7376622;19;20490;-80
2022/07/08 13:00:37;;;;;;;3.93;0.90;;;37.90;24.10;;;;;;7380206;19;20423;-84
2022/07/08 13:03:07;;;;;;;2.70;0.83;;;37.90;24.00;;;;;;7377463;19;20409;-84
2022/07/08 13:05:41;;;;;;;1.90;0.80;;;38.50;23.60;;;;;;7380810;19;20417;-84
2022/07/08 13:08:11;;;;;;;5.03;1.37;;;38.50;23.20;;;;;;7380854;19;20506;-83
2022/07/08 13:10:41;;;;;;;1.80;1.00;;;38.90;23.10;;;;;;7376852;19;20372;-85
2022/07/08 13:13:13;;;;;;;1.87;0.97;;;39.00;23.30;;;;;;7374712;19;20419;-84
2022/07/08 13:15:43;;;;;;;2.33;1.20;;;39.30;23.30;;;;;;7378946;19;20400;-85
2022/07/08 13:18:16;;;;;;;2.47;0.90;;;39.60;22.80;;;;;;7354215;19;20526;-84
2022/07/08 13:20:50;;;;;;;2.63;0.90;;;39.20;23.00;;;;;;7379026;19;20384;-84
2022/07/08 13:23:20;;;;;;;1.30;0.63;;;38.70;23.30;;;;;;7374235;19;21500;-84
2022/07/08 13:25:51;;;;;;;4.13;1.23;;;38.10;23.50;;;;;;7379910;19;21001;-84
2022/07/08 13:28:24;;;;;;;3.90;0.87;;;38.00;24.20;;;;;;7384498;19;20411;-83
2022/07/08 13:30:53;;;;;;;3.80;1.43;;;38.00;24.00;;;;;;7376424;19;20962;-84
2022/07/08 13:33:23;;;;;;;2.97;1.10;;;37.90;24.30;;;;;;7379598;19;20751;-84
2022/07/08 13:35:55;;;;;;;1.63;1.00;;;37.80;24.30;;;;;;7382861;19;20415;-83
2022/07/08 13:38:25;;;;;;;2.23;1.10;;;38.10;24.20;;;;;;7379431;19;21606;-84
2022/07/08 13:40:55;;;;;;;2.40;1.17;;;37.90;24.20;;;;;;7379958;19;20965;-82
2022/07/08 13:43:26;;;;;;;3.00;1.23;;;37.60;24.50;;;;;;7381087;19;20435;-83
2022/07/08 13:45:56;;;;;;;3.90;0.57;;;37.50;24.30;;;;;;7378322;19;20411;-80
2022/07/08 13:48:28;;;;;;;2.33;1.07;;;37.00;24.70;;;;;;7373284;19;20404;-82
2022/07/08 13:51:00;;;;;;;4.67;1.40;;;35.80;25.40;;;;;;7385394;19;20416;-82
2022/07/08 13:53:30;;;;;;;4.93;1.00;;;35.40;25.80;;;;;;7376046;19;20489;-82
2022/07/08 13:56:00;;;;;;;4.70;1.43;;;35.00;26.40;;;;;;7379777;19;20447;-82
2022/07/08 13:58:29;;;;;;;3.87;1.10;;;34.00;27.00;;;;;;7370480;19;20489;-82
2022/07/08 14:00:59;;;;;;;4.37;1.33;;;33.10;27.90;;;;;;7372888;19;20427;-82
2022/07/08 14:03:29;;;;;;;2.10;1.03;;;32.10;28.70;;;;;;7378022;19;20424;-82
2022/07/08 14:06:03;;;;;;;4.80;0.90;;;31.30;30.00;;;;;;7383561;19;20942;-81
2022/07/08 14:08:33;;;;;;;3.53;1.40;;;30.50;31.00;;;;;;7378819;19;20415;-82
2022/07/08 14:11:03;;;;;;;2.97;1.03;;;30.00;31.80;;;;;;7383508;19;20926;-82
2022/07/08 14:13:35;;;;;;;4.70;1.40;;;29.70;32.20;;;;;;7384368;19;20408;-82
2022/07/08 14:16:05;;;;;;;2.40;1.00;;;29.40;32.80;;;;;;7382135;19;20925;-82
2022/07/08 14:18:35;;;;;;;3.07;1.30;;;28.80;33.50;;;;;;7383908;19;20944;-82
2022/07/08 14:21:07;;;;;;;3.20;1.57;;;28.60;33.70;;;;;;7381010;19;20442;-81
2022/07/08 14:23:37;;;;;;;5.10;1.43;;;28.60;34.20;;;;;;7376498;19;20390;-82
2022/07/08 14:26:07;;;;;;;2.20;1.27;;;28.30;34.00;;;;;;7378376;19;20364;-81
2022/07/08 14:28:37;;;;;;;3.07;1.37;;;28.00;34.10;;;;;;7379811;19;20380;-83
2022/07/08 14:31:07;;;;;;;4.77;1.77;;;27.50;34.60;;;;;;7375661;19;20406;-85
2022/07/08 14:33:37;;;;;;;4.07;1.37;;;27.30;35.70;;;;;;7375538;19;20383;-82
2022/07/08 14:36:09;;;;;;;2.37;1.53;;;26.90;35.80;;;;;;7378930;19;20439;-82
2022/07/08 14:38:39;;;;;;;4.60;1.20;;;26.90;36.00;;;;;;7378157;19;20517;-81
2022/07/08 14:41:11;;;;;;;1.80;1.10;;;27.00;36.00;;;;;;7380092;19;20404;-81
2022/07/08 14:43:42;;;;;;;5.67;1.57;;;26.90;36.30;;;;;;7389909;19;20493;-82
2022/07/08 14:46:11;;;;;;;5.30;1.23;;;26.90;36.70;;;;;;7391032;19;20404;-82
2022/07/08 14:48:41;;;;;;;3.17;1.30;;;26.90;36.50;;;;;;7384980;19;20953;-82
2022/07/08 14:51:13;;;;;;;2.30;1.10;;;26.90;36.80;;;;;;7389617;19;21224;-82
2022/07/08 14:53:45;;;;;;;4.40;1.57;;;27.00;36.70;;;;;;7384913;19;21107;-82
2022/07/08 14:56:14;;;;;;;3.63;1.17;;;26.80;36.70;;;;;;7376763;19;20761;-81
2022/07/08 14:58:44;;;;;;;2.67;1.10;;;26.80;36.90;;;;;;7384506;19;20482;-82
2022/07/08 15:01:14;;;;;;;3.27;1.60;;;26.80;37.10;;;;;;7389684;19;20826;-82
2022/07/08 15:03:43;;;;;;;6.33;1.50;;;26.70;37.10;;;;;;7384400;19;20360;-84
2022/07/08 15:06:15;;;;;;;3.57;1.60;;;26.30;37.60;;;;;;7385477;19;20404;-82
2022/07/08 15:08:47;;;;;;;3.80;1.57;;;26.30;37.80;;;;;;7385380;19;20516;-82
2022/07/08 15:11:17;;;;;;;2.50;1.00;;;26.30;37.80;;;;;;7382495;19;20930;-81
2022/07/08 15:13:47;;;;;;;2.50;1.30;;;26.30;37.60;;;;;;7384269;19;20443;-82
2022/07/08 15:16:16;;;;;;;2.83;1.20;;;26.40;37.40;;;;;;7390809;19;20480;-83
2022/07/08 15:18:48;;;;;;;1.90;1.00;;;26.50;37.00;;;;;;7381526;19;20425;-83
2022/07/08 15:21:20;;;;;;;5.80;1.30;;;26.40;37.50;;;;;;7387428;19;20847;-81
2022/07/08 15:23:51;;;;;;;4.37;1.40;;;26.30;37.40;;;;;;7382308;19;20420;-81
2022/07/08 15:26:21;;;;;;;1.63;1.10;;;26.20;37.90;;;;;;7383964;19;20408;-83
2022/07/08 15:28:50;;;;;;;3.00;1.23;;;26.10;37.30;;;;;;7381771;19;20372;-82
2022/07/08 15:31:20;;;;;;;2.17;1.10;;;26.00;37.60;;;;;;7377627;19;20958;-83
2022/07/08 15:33:49;;;;;;;3.50;1.13;;;26.00;37.70;;;;;;7382262;19;20404;-84
2022/07/08 15:36:22;;;;;;;4.30;1.30;;;25.70;38.00;;;;;;7378852;19;20389;-84
2022/07/08 15:38:54;;;;;;;2.33;1.40;;;25.70;38.10;;;;;;7384238;19;20412;-84
2022/07/08 15:41:25;;;;;;;3.43;1.13;;;25.60;37.80;;;;;;7385784;19;20395;-84
2022/07/08 15:43:58;;;;;;;4.20;1.20;;;25.70;38.40;;;;;;7386557;19;20479;-84
2022/07/08 15:46:30;;;;;;;2.07;1.20;;;25.70;37.80;;;;;;7386051;19;20419;-83
2022/07/08 15:48:59;;;;;;;2.47;1.80;;;25.70;37.90;;;;;;7379522;19;20408;-85
2022/07/08 15:51:32;;;;;;;3.57;1.60;;;25.60;38.20;;;;;;7384150;19;20379;-84
2022/07/08 15:54:01;;;;;;;5.27;1.43;;;25.60;38.80;;;;;;7388238;19;20423;-85
2022/07/08 15:56:33;;;;;;;3.50;1.23;;;25.60;38.80;;;;;;7386233;19;20443;-84
2022/07/08 15:59:03;;;;;;;7.00;1.60;;;25.50;39.20;;;;;;7377550;19;20492;-84
2022/07/08 16:01:33;;;;;;;3.30;1.50;;;25.30;39.20;;;;;;7381975;19;21123;-84
2022/07/08 16:04:02;;;;;;;5.10;1.40;;;25.20;39.20;;;;;;7378445;19;20959;-84
2022/07/08 16:06:35;;;;;;;7.63;2.00;;;25.10;38.70;;;;;;7379949;19;20423;-85
2022/07/08 16:09:05;;;;;;;3.60;1.23;;;25.20;39.50;;;;;;7381520;19;20408;-85
2022/07/08 16:11:34;;;;;;;3.50;1.33;;;25.20;39.50;;;;;;7381276;19;20725;-83
2022/07/08 16:14:04;;;;;;;2.80;1.30;;;25.30;39.30;;;;;;7389710;19;20400;-85
2022/07/08 16:16:34;;;;;;;2.60;1.30;;;25.30;39.20;;;;;;7389780;19;20411;-85
2022/07/08 16:19:03;;;;;;;2.70;1.53;;;25.50;39.50;;;;;;7386502;19;20384;-84
2022/07/08 16:21:35;;;;;;;3.73;1.70;;;25.60;39.10;;;;;;7374814;19;20424;-85
2022/07/08 16:24:05;;;;;;;2.70;1.30;;;25.60;39.00;;;;;;7385006;19;20407;-84
2022/07/08 16:26:35;;;;;;;6.63;2.77;;;25.70;39.10;;;;;;7385604;19;20396;-85
2022/07/08 16:29:05;;;;;;;4.80;1.50;;;25.50;39.60;;;;;;7376122;19;20412;-84
2022/07/08 16:31:35;;;;;;;3.10;1.50;;;25.50;39.20;;;;;;7381982;19;20433;-85
2022/07/08 16:34:05;;;;;;;4.07;1.40;;;25.50;39.20;;;;;;7382896;19;20404;-85
2022/07/08 16:36:37;;;;;;;4.40;1.47;;;25.60;40.10;;;;;;7378417;19;20411;-85
2022/07/08 16:39:07;;;;;;;2.97;1.60;;;25.40;38.80;;;;;;7376658;19;20487;-85
2022/07/08 16:41:36;;;;;;;3.83;1.97;;;25.20;39.00;;;;;;7380210;19;20400;-84
2022/07/08 16:44:08;;;;;;;4.17;2.07;;;25.20;39.30;;;;;;7374147;19;20400;-86
2022/07/08 16:46:38;;;;;;;6.50;1.90;;;24.90;39.20;;;;;;7379391;19;20424;-83
2022/07/08 16:49:07;;;;;;;3.03;1.37;;;24.80;39.70;;;;;;7377550;19;20406;-84
2022/07/08 16:51:39;;;;;;;3.70;1.53;;;24.70;39.60;;;;;;7378498;19;20419;-82
2022/07/08 16:54:09;;;;;;;3.60;1.47;;;24.80;40.10;;;;;;7369954;19;20427;-83
2022/07/08 16:56:40;;;;;;;3.40;1.33;;;24.80;39.50;;;;;;7372124;19;20452;-81
2022/07/08 16:59:12;;;;;;;3.33;1.20;;;24.90;39.40;;;;;;7375584;19;20854;-82
2022/07/08 17:01:42;;;;;;;5.00;2.17;;;24.90;39.30;;;;;;7367293;19;20411;-82
2022/07/08 17:04:12;;;;;;;3.27;1.10;;;24.90;39.80;;;;;;7381020;19;20420;-81
2022/07/08 17:06:44;;;;;;;7.90;1.63;;;25.10;39.70;;;;;;7379209;19;20412;-82
2022/07/08 17:09:15;;;;;;;3.13;1.57;;;25.00;38.90;;;;;;7381419;19;20853;-82
2022/07/08 17:11:48;;;;;;;4.00;1.53;;;24.90;39.00;;;;;;7378313;19;20423;-81
2022/07/08 17:14:17;;;;;;;1.57;1.37;;;24.80;39.50;;;;;;7378930;19;20369;-82
2022/07/08 17:16:49;;;;;;;3.50;1.37;;;24.70;39.90;;;;;;7374111;19;20424;-81
2022/07/08 17:19:19;;;;;;;3.30;1.50;;;24.50;40.10;;;;;;7381758;19;20412;-81
2022/07/08 17:21:51;;;;;;;2.70;1.60;;;24.40;39.80;;;;;;7374968;19;20450;-82
2022/07/08 17:24:25;;;;;;;4.63;1.70;;;24.20;40.00;;;;;;7372093;19;20380;-80
2022/07/08 17:26:54;;;;;;;4.53;1.57;;;24.30;39.90;;;;;;7378004;19;20400;-81
2022/07/08 17:32:06;;;;;;;3.27;1.30;;;24.40;39.90;;;;;;7381734;19;20424;-82
2022/07/08 17:34:38;;;;;;;2.70;1.47;;;24.30;39.50;;;;;;7374330;19;20479;-80
2022/07/08 17:37:10;;;;;;;2.23;1.33;;;24.20;40.20;;;;;;7372515;19;20408;-81
2022/07/08 17:39:42;;;;;;;2.73;1.23;;;24.30;40.50;;;;;;7378371;19;20414;-81
2022/07/08 17:42:12;;;;;;;4.90;1.80;;;24.40;40.30;;;;;;7374720;19;20977;-82
2022/07/08 17:44:43;;;;;;;2.63;1.67;;;24.50;40.30;;;;;;7377107;19;20378;-80
2022/07/08 17:47:13;;;;;;;3.17;1.30;;;24.40;40.30;;;;;;7370262;19;20416;-82
2022/07/08 17:49:44;;;;;;;2.63;1.67;;;24.20;40.50;;;;;;7370317;19;20471;-82
2022/07/08 17:52:17;;;;;;;3.43;1.37;;;24.10;40.90;;;;;;7349917;19;20408;-82
2022/07/08 17:54:46;;;;;;;5.03;1.80;;;24.10;40.80;;;;;;7359416;19;20411;-82
2022/07/08 17:57:19;;;;;;;2.30;1.67;;;24.10;40.80;;;;;;7375228;19;21696;-82
2022/07/08 17:59:49;;;;;;;3.90;1.47;;;24.00;40.60;;;;;;7374526;19;20862;-82
2022/07/08 18:02:19;;;;;;;2.83;1.10;;;24.10;41.40;;;;;;7366781;19;21001;-82
2022/07/08 18:04:51;;;;;;;2.47;1.40;;;24.20;41.50;;;;;;7374276;19;20413;-81
2022/07/08 18:07:23;;;;;;;5.13;1.90;;;24.20;40.60;;;;;;7378741;19;20419;-81